Time,TemperatureF,DewpointF,PressureIn,WindDirection,WindDirectionDegrees,WindSpeedMPH,WindSpeedGustMPH,Humidity,HourlyPrecipIn,Conditions,Clouds,dailyrainin,SoftwareType,DateUTC
2013-10-20 00:02:00,54.8,44.8,29.98,WNW,290,0.0,0.0,69,0.00,CLR,,0.00,WeatherDisplay:10.37,2013-10-20 07:02:00,
2013-10-20 00:07:00,55.0,44.2,29.98,WNW,290,0.0,0.0,67,0.00,CLR,,0.00,WeatherDisplay:10.37,2013-10-20 07:07:00,
2013-10-20 00:12:00,55.1,44.3,29.98,WNW,290,0.0,0.0,67,0.00,CLR,,0.00,WeatherDisplay:10.37,2013-10-20 07:12:00,
2013-10-20 00:17:00,55.2,44.4,29.97,WNW,293,0.0,0.0,67,0.00,CLR,,0.00,WeatherDisplay:10.37,2013-10-20 07:17:00,
2013-10-20 00:22:00,55.2,44.8,29.97,WNW,290,0.0,0.0,68,0.00,CLR,,0.00,WeatherDisplay:10.37,2013-10-20 07:22:00,
2013-10-20 00:27:00,55.1,44.3,29.98,WNW,290,0.0,0.0,67,0.00,CLR,,0.00,WeatherDisplay:10.37,2013-10-20 07:27:00,
2013-10-20 00:32:00,54.9,44.1,29.97,WNW,290,0.0,0.0,67,0.00,CLR,,0.00,WeatherDisplay:10.37,2013-10-20 07:32:00,
2013-10-20 00:37:00,54.7,43.6,29.97,WNW,290,0.0,0.0,66,0.00,CLR,,0.00,WeatherDisplay:10.37,2013-10-20 07:37:00,
2013-10-20 00:42:00,54.5,43.4,29.97,WNW,290,0.0,0.0,66,0.00,CLR,,0.00,WeatherDisplay:10.37,2013-10-20 07:42:00,
2013-10-20 00:47:00,54.4,42.9,29.97,WNW,290,0.0,0.0,65,0.00,CLR,,0.00,WeatherDisplay:10.37,2013-10-20 07:47:00,
2013-10-20 00:52:00,54.4,43.3,29.97,WNW,290,0.0,0.0,66,0.00,CLR,,0.00,WeatherDisplay:10.37,2013-10-20 07:52:00,
2013-10-20 00:57:00,54.3,44.3,29.97,WNW,290,0.0,0.0,69,0.00,CLR,,0.00,WeatherDisplay:10.37,2013-10-20 07:57:00,
2013-10-20 01:02:00,54.2,44.6,29.97,WNW,290,0.0,0.0,70,0.00,CLR,,0.00,WeatherDisplay:10.37,2013-10-20 08:02:00,
2013-10-20 01:07:00,54.0,44.8,29.97,WNW,290,0.0,0.0,71,0.00,CLR,,0.00,WeatherDisplay:10.37,2013-10-20 08:07:00,
2013-10-20 01:12:00,53.8,44.2,29.97,WNW,293,0.0,0.0,70,0.00,CLR,,0.00,WeatherDisplay:10.37,2013-10-20 08:12:00,
2013-10-20 01:17:00,53.6,43.3,29.97,WNW,293,0.0,0.0,68,0.00,CLR,,0.00,WeatherDisplay:10.37,2013-10-20 08:17:00,
2013-10-20 01:22:00,53.9,42.8,29.97,WNW,290,0.0,0.0,66,0.00,CLR,,0.00,WeatherDisplay:10.37,2013-10-20 08:22:00,
2013-10-20 01:27:00,54.1,43.0,29.97,WNW,291,0.0,0.0,66,0.00,CLR,,0.00,WeatherDisplay:10.37,2013-10-20 08:27:00,
2013-10-20 01:32:00,54.3,44.0,29.97,WNW,290,0.0,0.0,68,0.00,CLR,,0.00,WeatherDisplay:10.37,2013-10-20 08:32:00,
2013-10-20 01:37:00,54.1,43.4,29.97,WNW,292,0.0,0.0,67,0.00,CLR,,0.00,WeatherDisplay:10.37,2013-10-20 08:37:00,
2013-10-20 01:42:00,54.0,44.1,29.97,WNW,291,0.0,0.0,69,0.00,CLR,,0.00,WeatherDisplay:10.37,2013-10-20 08:42:00,
2013-10-20 01:47:00,53.9,44.3,29.97,WNW,290,0.0,0.0,70,0.00,CLR,,0.00,WeatherDisplay:10.37,2013-10-20 08:47:00,
2013-10-20 01:52:00,53.6,43.7,29.97,WNW,291,0.0,0.0,69,0.00,CLR,,0.00,WeatherDisplay:10.37,2013-10-20 08:52:00,
2013-10-20 01:57:00,53.4,43.9,29.97,WNW,293,0.0,0.0,70,0.00,CLR,,0.00,WeatherDisplay:10.37,2013-10-20 08:57:00,
2013-10-20 02:02:00,53.1,43.6,29.97,WNW,291,0.0,0.0,70,0.00,CLR,,0.00,WeatherDisplay:10.37,2013-10-20 09:02:00,
2013-10-20 02:07:00,52.9,43.7,29.97,WNW,290,0.0,0.0,71,0.00,CLR,,0.00,WeatherDisplay:10.37,2013-10-20 09:07:00,
2013-10-20 02:12:00,52.6,44.2,29.97,WNW,290,0.0,0.0,73,0.00,CLR,,0.00,WeatherDisplay:10.37,2013-10-20 09:12:00,
2013-10-20 02:17:00,52.4,43.6,29.97,WNW,291,0.0,0.0,72,0.00,CLR,,0.00,WeatherDisplay:10.37,2013-10-20 09:17:00,
2013-10-20 02:22:00,52.1,43.3,29.97,WNW,291,0.0,0.0,72,0.00,CLR,,0.00,WeatherDisplay:10.37,2013-10-20 09:22:00,
2013-10-20 02:27:00,51.9,43.5,29.97,WNW,290,0.0,0.0,73,0.00,CLR,,0.00,WeatherDisplay:10.37,2013-10-20 09:27:00,
2013-10-20 02:32:00,51.7,43.3,29.97,WNW,291,0.0,0.0,73,0.00,CLR,,0.00,WeatherDisplay:10.37,2013-10-20 09:32:00,
2013-10-20 02:37:00,51.6,43.2,29.97,WNW,291,0.0,0.0,73,0.00,CLR,,0.00,WeatherDisplay:10.37,2013-10-20 09:37:00,
2013-10-20 02:42:00,51.4,43.0,29.97,WNW,290,0.0,0.0,73,0.00,CLR,,0.00,WeatherDisplay:10.37,2013-10-20 09:42:00,
2013-10-20 02:47:00,51.2,43.2,29.97,WNW,291,0.0,0.0,74,0.00,CLR,,0.00,WeatherDisplay:10.37,2013-10-20 09:47:00,
2013-10-20 02:52:00,51.0,42.6,29.97,WNW,293,0.0,0.0,73,0.00,CLR,,0.00,WeatherDisplay:10.37,2013-10-20 09:52:00,
2013-10-20 02:57:00,51.0,42.6,29.97,WNW,291,0.0,0.0,73,0.00,CLR,,0.00,WeatherDisplay:10.37,2013-10-20 09:57:00,
2013-10-20 03:02:00,50.9,42.6,29.97,WNW,290,0.0,0.0,73,0.00,CLR,,0.00,WeatherDisplay:10.37,2013-10-20 10:02:00,
2013-10-20 03:07:00,51.0,42.3,29.96,WNW,290,0.0,0.0,72,0.00,CLR,,0.00,WeatherDisplay:10.37,2013-10-20 10:07:00,
2013-10-20 03:12:00,51.0,43.0,29.96,WNW,291,0.0,0.0,74,0.00,CLR,,0.00,WeatherDisplay:10.37,2013-10-20 10:12:00,
2013-10-20 03:17:00,51.0,42.6,29.96,WNW,291,0.0,0.0,73,0.00,CLR,,0.00,WeatherDisplay:10.37,2013-10-20 10:17:00,
2013-10-20 03:22:00,50.9,42.6,29.96,WNW,291,0.0,0.0,73,0.00,CLR,,0.00,WeatherDisplay:10.37,2013-10-20 10:22:00,
2013-10-20 03:27:00,50.7,42.0,29.96,WNW,290,0.0,0.0,72,0.00,CLR,,0.00,WeatherDisplay:10.37,2013-10-20 10:27:00,
2013-10-20 03:32:00,50.6,41.5,29.96,WNW,290,0.0,0.0,71,0.00,CLR,,0.00,WeatherDisplay:10.37,2013-10-20 10:32:00,
2013-10-20 03:37:00,50.5,41.8,29.96,WNW,291,0.0,0.0,72,0.00,CLR,,0.00,WeatherDisplay:10.37,2013-10-20 10:37:00,
2013-10-20 03:42:00,50.5,42.5,29.95,WNW,290,0.0,0.0,74,0.00,CLR,,0.00,WeatherDisplay:10.37,2013-10-20 10:42:00,
2013-10-20 03:47:00,50.3,42.3,29.95,WNW,290,0.0,0.0,74,0.00,CLR,,0.00,WeatherDisplay:10.37,2013-10-20 10:47:00,
2013-10-20 03:52:00,50.2,42.2,29.95,WNW,290,0.0,0.0,74,0.00,CLR,,0.00,WeatherDisplay:10.37,2013-10-20 10:52:00,
2013-10-20 03:57:00,50.1,42.1,29.95,WNW,291,0.0,0.0,74,0.00,CLR,,0.00,WeatherDisplay:10.37,2013-10-20 10:57:00,
2013-10-20 04:02:00,50.0,42.4,29.95,WNW,290,0.0,0.0,75,0.00,CLR,,0.00,WeatherDisplay:10.37,2013-10-20 11:02:00,
2013-10-20 04:07:00,49.9,42.3,29.95,WNW,291,0.0,0.0,75,0.00,CLR,,0.00,WeatherDisplay:10.37,2013-10-20 11:07:00,
2013-10-20 04:12:00,49.8,41.8,29.95,WNW,291,0.0,0.0,74,0.00,CLR,,0.00,WeatherDisplay:10.37,2013-10-20 11:12:00,
2013-10-20 04:17:00,49.7,42.1,29.95,WNW,290,0.0,0.0,75,0.00,CLR,,0.00,WeatherDisplay:10.37,2013-10-20 11:17:00,
2013-10-20 04:22:00,49.8,42.5,29.95,WNW,291,0.0,0.0,76,0.00,CLR,,0.00,WeatherDisplay:10.37,2013-10-20 11:22:00,
2013-10-20 04:27:00,49.8,42.2,29.95,WNW,291,0.0,0.0,75,0.00,CLR,,0.00,WeatherDisplay:10.37,2013-10-20 11:27:00,
2013-10-20 04:32:00,49.8,42.2,29.95,WNW,290,0.0,0.0,75,0.00,CLR,,0.00,WeatherDisplay:10.37,2013-10-20 11:32:00,
2013-10-20 04:37:00,49.7,42.1,29.95,WNW,290,0.0,0.0,75,0.00,CLR,,0.00,WeatherDisplay:10.37,2013-10-20 11:37:00,
2013-10-20 04:42:00,49.6,41.7,29.95,WNW,290,0.0,0.0,74,0.00,CLR,,0.00,WeatherDisplay:10.37,2013-10-20 11:42:00,
2013-10-20 04:47:00,49.6,41.7,29.95,WNW,291,0.0,0.0,74,0.00,CLR,,0.00,WeatherDisplay:10.37,2013-10-20 11:47:00,
2013-10-20 04:52:00,49.5,41.6,29.95,WNW,291,0.0,0.0,74,0.00,CLR,,0.00,WeatherDisplay:10.37,2013-10-20 11:52:00,
2013-10-20 04:57:00,49.7,41.7,29.95,WNW,290,0.0,0.0,74,0.00,CLR,,0.00,WeatherDisplay:10.37,2013-10-20 11:57:00,
2013-10-20 05:02:00,49.8,41.8,29.96,WNW,291,0.0,0.0,74,0.00,CLR,,0.00,WeatherDisplay:10.37,2013-10-20 12:02:00,
2013-10-20 05:07:00,49.7,41.4,29.96,WNW,290,0.0,0.0,73,0.00,CLR,,0.00,WeatherDisplay:10.37,2013-10-20 12:07:00,
2013-10-20 05:12:00,49.6,41.3,29.96,WNW,290,0.0,0.0,73,0.00,CLR,,0.00,WeatherDisplay:10.37,2013-10-20 12:12:00,
2013-10-20 05:17:00,49.5,41.2,29.96,WNW,290,0.0,0.0,73,0.00,CLR,,0.00,WeatherDisplay:10.37,2013-10-20 12:17:00,
2013-10-20 05:22:00,49.5,41.9,29.96,WNW,291,0.0,0.0,75,0.00,CLR,,0.00,WeatherDisplay:10.37,2013-10-20 12:22:00,
2013-10-20 05:27:00,49.3,41.7,29.96,WNW,291,0.0,0.0,75,0.00,CLR,,0.00,WeatherDisplay:10.37,2013-10-20 12:27:00,
2013-10-20 05:32:00,49.2,41.6,29.95,WNW,290,0.0,0.0,75,0.00,CLR,,0.00,WeatherDisplay:10.37,2013-10-20 12:32:00,
2013-10-20 05:37:00,49.0,41.8,29.95,WNW,290,0.0,0.0,76,0.00,CLR,,0.00,WeatherDisplay:10.37,2013-10-20 12:37:00,
2013-10-20 05:42:00,48.8,41.6,29.95,WNW,290,0.0,0.0,76,0.00,CLR,,0.00,WeatherDisplay:10.37,2013-10-20 12:42:00,
2013-10-20 05:47:00,48.7,41.1,29.95,WNW,291,0.0,0.0,75,0.00,CLR,,0.00,WeatherDisplay:10.37,2013-10-20 12:47:00,
2013-10-20 05:52:00,48.6,41.4,29.95,WNW,291,0.0,0.0,76,0.00,CLR,,0.00,WeatherDisplay:10.37,2013-10-20 12:52:00,
2013-10-20 05:57:00,48.6,41.0,29.95,WNW,292,0.0,0.0,75,0.00,CLR,,0.00,WeatherDisplay:10.37,2013-10-20 12:57:00,
2013-10-20 06:02:00,48.6,41.0,29.95,WNW,293,0.0,0.0,75,0.00,CLR,,0.00,WeatherDisplay:10.37,2013-10-20 13:02:00,
2013-10-20 06:07:00,48.7,41.5,29.95,WNW,291,0.0,0.0,76,0.00,CLR,,0.00,WeatherDisplay:10.37,2013-10-20 13:07:00,
2013-10-20 06:12:00,48.6,40.7,29.96,WNW,290,0.0,0.0,74,0.00,CLR,,0.00,WeatherDisplay:10.37,2013-10-20 13:12:00,
2013-10-20 06:17:00,48.5,40.6,29.95,WNW,291,0.0,0.0,74,0.00,CLR,,0.00,WeatherDisplay:10.37,2013-10-20 13:17:00,
2013-10-20 06:22:00,48.6,40.3,29.95,WNW,291,0.0,0.0,73,0.00,CLR,,0.00,WeatherDisplay:10.37,2013-10-20 13:22:00,
2013-10-20 06:27:00,48.8,40.5,29.95,WNW,290,0.0,0.0,73,0.00,CLR,,0.00,WeatherDisplay:10.37,2013-10-20 13:27:00,
2013-10-20 06:32:00,48.9,40.6,29.96,WNW,290,0.0,0.0,73,0.00,CLR,,0.00,WeatherDisplay:10.37,2013-10-20 13:32:00,
2013-10-20 06:37:00,48.9,41.0,29.96,WNW,291,0.0,0.0,74,0.00,CLR,,0.00,WeatherDisplay:10.37,2013-10-20 13:37:00,
2013-10-20 06:42:00,49.0,41.1,29.96,WNW,291,0.0,0.0,74,0.00,CLR,,0.00,WeatherDisplay:10.37,2013-10-20 13:42:00,
2013-10-20 06:47:00,48.9,41.3,29.96,WNW,290,0.0,0.0,75,0.00,CLR,,0.00,WeatherDisplay:10.37,2013-10-20 13:47:00,
2013-10-20 06:52:00,48.8,41.2,29.96,WNW,290,0.0,0.0,75,0.00,CLR,,0.00,WeatherDisplay:10.37,2013-10-20 13:52:00,
2013-10-20 06:57:00,48.6,41.4,29.96,WNW,290,0.0,0.0,76,0.00,CLR,,0.00,WeatherDisplay:10.37,2013-10-20 13:57:00,
2013-10-20 07:02:00,48.4,41.2,29.96,WNW,290,0.0,0.0,76,0.00,CLR,,0.00,WeatherDisplay:10.37,2013-10-20 14:02:00,
2013-10-20 07:07:00,48.2,41.3,29.96,WNW,290,0.0,0.0,77,0.00,CLR,,0.00,WeatherDisplay:10.37,2013-10-20 14:07:00,
2013-10-20 07:12:00,48.1,41.2,29.96,WNW,290,0.0,0.0,77,0.00,CLR,,0.00,WeatherDisplay:10.37,2013-10-20 14:12:00,
2013-10-20 07:17:00,47.9,41.0,29.97,WNW,291,0.0,0.0,77,0.00,CLR,,0.00,WeatherDisplay:10.37,2013-10-20 14:17:00,
2013-10-20 07:22:00,47.8,40.9,29.97,WNW,290,0.0,0.0,77,0.00,CLR,,0.00,WeatherDisplay:10.37,2013-10-20 14:22:00,
2013-10-20 07:27:00,47.8,40.9,29.97,WNW,291,0.0,0.0,77,0.00,CLR,,0.00,WeatherDisplay:10.37,2013-10-20 14:27:00,
2013-10-20 07:32:00,47.8,40.9,29.97,WNW,291,0.0,0.0,77,0.00,CLR,,0.00,WeatherDisplay:10.37,2013-10-20 14:32:00,
2013-10-20 07:37:00,47.9,40.7,29.97,WNW,290,0.0,0.0,76,0.00,CLR,,0.00,WeatherDisplay:10.37,2013-10-20 14:37:00,
2013-10-20 07:42:00,48.1,40.5,29.97,WNW,291,0.0,0.0,75,0.00,CLR,,0.00,WeatherDisplay:10.37,2013-10-20 14:42:00,
2013-10-20 07:47:00,48.5,40.2,29.96,WNW,290,0.0,0.0,73,0.00,CLR,,0.00,WeatherDisplay:10.37,2013-10-20 14:47:00,
2013-10-20 07:52:00,48.8,40.2,29.97,WNW,291,0.0,0.0,72,0.00,CLR,,0.00,WeatherDisplay:10.37,2013-10-20 14:52:00,
2013-10-20 07:57:00,49.1,40.8,29.97,WNW,291,0.0,0.0,73,0.00,CLR,,0.00,WeatherDisplay:10.37,2013-10-20 14:57:00,
2013-10-20 08:02:00,49.5,40.8,29.97,WNW,291,0.0,0.0,72,0.00,CLR,,0.00,WeatherDisplay:10.37,2013-10-20 15:02:00,
2013-10-20 08:07:00,50.1,41.1,29.97,WNW,290,0.0,0.0,71,0.00,CLR,,0.00,WeatherDisplay:10.37,2013-10-20 15:07:00,
2013-10-20 08:12:00,50.5,41.8,29.97,WNW,290,0.0,0.0,72,0.00,CLR,,0.00,WeatherDisplay:10.37,2013-10-20 15:12:00,
2013-10-20 08:17:00,51.1,41.7,29.98,WNW,291,0.0,0.0,70,0.00,CLR,,0.00,WeatherDisplay:10.37,2013-10-20 15:17:00,
2013-10-20 08:22:00,51.8,42.3,29.98,WNW,291,0.0,0.0,70,0.00,CLR,,0.00,WeatherDisplay:10.37,2013-10-20 15:22:00,
2013-10-20 08:27:00,52.4,42.9,29.98,WNW,291,0.0,0.0,70,0.00,CLR,,0.00,WeatherDisplay:10.37,2013-10-20 15:27:00,
2013-10-20 08:32:00,52.7,42.8,29.98,WNW,290,0.0,0.0,69,0.00,CLR,,0.00,WeatherDisplay:10.37,2013-10-20 15:32:00,
2013-10-20 08:37:00,53.1,43.2,29.98,WNW,290,0.0,0.0,69,0.00,CLR,,0.00,WeatherDisplay:10.37,2013-10-20 15:37:00,
2013-10-20 08:42:00,53.5,43.2,29.98,WNW,291,0.0,0.0,68,0.00,CLR,,0.00,WeatherDisplay:10.37,2013-10-20 15:42:00,
2013-10-20 08:47:00,54.1,43.8,29.98,WNW,290,0.0,0.0,68,0.00,CLR,,0.00,WeatherDisplay:10.37,2013-10-20 15:47:00,
2013-10-20 08:52:00,55.1,43.9,29.98,WNW,290,0.0,0.0,66,0.00,CLR,,0.00,WeatherDisplay:10.37,2013-10-20 15:52:00,
2013-10-20 08:57:00,56.3,43.9,29.98,WNW,291,0.0,0.0,63,0.00,CLR,,0.00,WeatherDisplay:10.37,2013-10-20 15:57:00,
2013-10-20 09:02:00,57.1,43.8,29.98,WNW,291,0.0,0.0,61,0.00,CLR,,0.00,WeatherDisplay:10.37,2013-10-20 16:02:00,
2013-10-20 09:07:00,57.7,43.5,29.99,WNW,290,0.0,0.0,59,0.00,CLR,,0.00,WeatherDisplay:10.37,2013-10-20 16:07:00,
2013-10-20 09:12:00,58.7,43.5,29.98,WNW,291,0.0,0.0,57,0.00,CLR,,0.00,WeatherDisplay:10.37,2013-10-20 16:12:00,
2013-10-20 09:17:00,59.3,44.1,29.98,WNW,290,0.0,0.0,57,0.00,CLR,,0.00,WeatherDisplay:10.37,2013-10-20 16:17:00,
2013-10-20 09:22:00,59.8,44.1,29.98,WNW,293,0.0,0.0,56,0.00,CLR,,0.00,WeatherDisplay:10.37,2013-10-20 16:22:00,
2013-10-20 09:27:00,60.2,43.5,29.98,WNW,290,0.0,0.0,54,0.00,CLR,,0.00,WeatherDisplay:10.37,2013-10-20 16:27:00,
2013-10-20 09:32:00,60.9,43.1,29.98,WNW,291,0.0,0.0,52,0.00,CLR,,0.00,WeatherDisplay:10.37,2013-10-20 16:32:00,
2013-10-20 09:37:00,61.6,43.3,29.98,WNW,290,0.0,0.0,51,0.00,CLR,,0.00,WeatherDisplay:10.37,2013-10-20 16:37:00,
2013-10-20 09:42:00,62.0,43.1,29.98,WNW,290,0.0,0.0,50,0.00,CLR,,0.00,WeatherDisplay:10.37,2013-10-20 16:42:00,
2013-10-20 09:47:00,62.4,43.0,29.98,WNW,290,0.0,0.0,49,0.00,CLR,,0.00,WeatherDisplay:10.37,2013-10-20 16:47:00,
2013-10-20 09:52:00,63.0,43.0,29.98,WNW,291,0.0,0.0,48,0.00,CLR,,0.00,WeatherDisplay:10.37,2013-10-20 16:52:00,
2013-10-20 09:57:00,63.6,44.1,29.98,WNW,290,0.0,0.0,49,0.00,CLR,,0.00,WeatherDisplay:10.37,2013-10-20 16:57:00,
2013-10-20 10:02:00,64.3,43.6,29.98,WSW,238,0.0,0.0,47,0.00,CLR,,0.00,WeatherDisplay:10.37,2013-10-20 17:02:00,
2013-10-20 10:07:00,65.2,43.3,29.98,West,263,0.0,0.0,45,0.00,CLR,,0.00,WeatherDisplay:10.37,2013-10-20 17:07:00,
2013-10-20 10:12:00,66.0,43.5,29.98,West,263,0.0,0.0,44,0.00,CLR,,0.00,WeatherDisplay:10.37,2013-10-20 17:12:00,
2013-10-20 10:17:00,66.7,43.5,29.98,West,270,1.2,0.0,43,0.00,CLR,,0.00,WeatherDisplay:10.37,2013-10-20 17:17:00,
2013-10-20 10:22:00,67.4,44.1,29.98,West,269,0.0,0.0,43,0.00,CLR,,0.00,WeatherDisplay:10.37,2013-10-20 17:22:00,
2013-10-20 10:27:00,67.8,43.9,29.97,West,270,0.0,0.0,42,0.00,CLR,,0.00,WeatherDisplay:10.37,2013-10-20 17:27:00,
2013-10-20 10:32:00,68.1,44.1,29.97,West,270,0.0,0.0,42,0.00,CLR,,0.00,WeatherDisplay:10.37,2013-10-20 17:32:00,
2013-10-20 10:37:00,68.6,43.9,29.97,West,266,1.2,0.0,41,0.00,CLR,,0.00,WeatherDisplay:10.37,2013-10-20 17:37:00,
2013-10-20 10:42:00,69.1,44.4,29.97,SW,232,0.0,0.0,41,0.00,CLR,,0.00,WeatherDisplay:10.37,2013-10-20 17:42:00,
2013-10-20 10:47:00,69.5,44.1,29.97,South,184,0.0,0.0,40,0.00,CLR,,0.00,WeatherDisplay:10.37,2013-10-20 17:47:00,
2013-10-20 10:52:00,69.8,45.7,29.97,South,184,0.0,0.0,42,0.00,CLR,,0.00,WeatherDisplay:10.37,2013-10-20 17:52:00,
2013-10-20 10:57:00,70.2,44.7,29.97,WSW,255,1.2,0.0,40,0.00,CLR,,0.00,WeatherDisplay:10.37,2013-10-20 17:57:00,
2013-10-20 11:02:00,70.5,45.0,29.97,ENE,63,0.0,0.1,40,0.00,CLR,,0.00,WeatherDisplay:10.37,2013-10-20 18:02:00,
2013-10-20 11:07:00,71.0,44.1,29.97,WNW,294,1.2,1.2,38,0.00,CLR,,0.00,WeatherDisplay:10.37,2013-10-20 18:07:00,
2013-10-20 11:12:00,71.5,45.2,29.97,SW,228,0.0,0.1,39,0.00,CLR,,0.00,WeatherDisplay:10.37,2013-10-20 18:12:00,
2013-10-20 11:17:00,71.8,44.8,29.97,South,172,0.0,0.0,38,0.00,CLR,,0.00,WeatherDisplay:10.37,2013-10-20 18:17:00,
2013-10-20 11:22:00,72.0,44.3,29.96,SW,232,1.2,1.2,37,0.00,CLR,,0.00,WeatherDisplay:10.37,2013-10-20 18:22:00,
2013-10-20 11:27:00,72.4,44.6,29.96,WSW,250,0.0,0.0,37,0.00,CLR,,0.00,WeatherDisplay:10.37,2013-10-20 18:27:00,
2013-10-20 11:32:00,72.7,44.9,29.96,East,101,0.0,0.1,37,0.00,CLR,,0.00,WeatherDisplay:10.37,2013-10-20 18:32:00,
2013-10-20 11:37:00,73.1,45.3,29.96,SW,235,1.2,0.0,37,0.00,CLR,,0.00,WeatherDisplay:10.37,2013-10-20 18:37:00,
2013-10-20 11:42:00,73.4,45.5,29.96,East,90,1.2,1.2,37,0.00,CLR,,0.00,WeatherDisplay:10.37,2013-10-20 18:42:00,
2013-10-20 11:47:00,73.7,46.5,29.96,WNW,294,0.0,0.0,38,0.00,CLR,,0.00,WeatherDisplay:10.37,2013-10-20 18:47:00,
2013-10-20 11:52:00,74.0,44.6,29.96,South,170,0.0,0.0,35,0.00,CLR,,0.00,WeatherDisplay:10.37,2013-10-20 18:52:00,
2013-10-20 11:57:00,74.3,44.9,29.96,SSW,204,0.0,0.0,35,0.00,CLR,,0.00,WeatherDisplay:10.37,2013-10-20 18:57:00,
2013-10-20 12:02:00,74.7,46.0,29.95,South,186,0.0,0.0,36,0.00,CLR,,0.00,WeatherDisplay:10.37,2013-10-20 19:02:00,
2013-10-20 12:07:00,74.9,46.1,29.95,SW,215,0.0,0.1,36,0.00,CLR,,0.00,WeatherDisplay:10.37,2013-10-20 19:07:00,
2013-10-20 12:12:00,75.4,46.6,29.95,West,262,1.2,1.2,36,0.00,CLR,,0.00,WeatherDisplay:10.37,2013-10-20 19:12:00,
2013-10-20 12:17:00,75.8,46.2,29.95,West,262,0.0,0.0,35,0.00,CLR,,0.00,WeatherDisplay:10.37,2013-10-20 19:17:00,
2013-10-20 12:22:00,76.0,46.4,29.95,ESE,111,1.2,1.2,35,0.00,CLR,,0.00,WeatherDisplay:10.37,2013-10-20 19:22:00,
2013-10-20 12:27:00,76.2,46.5,29.95,West,278,0.0,0.0,35,0.00,CLR,,0.00,WeatherDisplay:10.37,2013-10-20 19:27:00,
2013-10-20 12:32:00,76.7,47.0,29.95,NW,319,0.0,0.0,35,0.00,CLR,,0.00,WeatherDisplay:10.37,2013-10-20 19:32:00,
2013-10-20 12:37:00,77.2,47.4,29.94,WNW,297,1.2,0.0,35,0.00,CLR,,0.00,WeatherDisplay:10.37,2013-10-20 19:37:00,
2013-10-20 12:42:00,77.8,46.4,29.94,WSW,243,1.2,1.2,33,0.00,CLR,,0.00,WeatherDisplay:10.37,2013-10-20 19:42:00,
2013-10-20 12:47:00,78.2,46.7,29.94,West,272,1.0,0.0,33,0.00,CLR,,0.00,WeatherDisplay:10.37,2013-10-20 19:47:00,
2013-10-20 12:52:00,78.8,46.4,29.93,SSW,201,0.0,0.0,32,0.00,CLR,,0.00,WeatherDisplay:10.37,2013-10-20 19:52:00,
2013-10-20 12:57:00,79.3,46.0,29.93,NW,314,2.3,2.3,31,0.00,CLR,,0.00,WeatherDisplay:10.37,2013-10-20 19:57:00,
2013-10-20 13:02:00,79.4,46.1,29.93,SSW,195,2.3,2.3,31,0.00,CLR,,0.00,WeatherDisplay:10.37,2013-10-20 20:02:00,
2013-10-20 13:07:00,79.6,44.5,29.92,North,5,3.5,3.5,29,0.00,CLR,,0.00,WeatherDisplay:10.37,2013-10-20 20:07:00,
2013-10-20 13:12:00,79.7,47.2,29.92,SW,231,1.2,1.2,32,0.00,CLR,,0.00,WeatherDisplay:10.37,2013-10-20 20:12:00,
2013-10-20 13:17:00,80.3,46.0,29.92,SSW,207,2.3,2.3,30,0.00,CLR,,0.00,WeatherDisplay:10.37,2013-10-20 20:17:00,
2013-10-20 13:22:00,80.6,45.4,29.92,NNE,22,3.5,3.5,29,0.00,CLR,,0.00,WeatherDisplay:10.37,2013-10-20 20:22:00,
2013-10-20 13:27:00,80.8,46.5,29.92,North,350,4.6,4.6,30,0.00,CLR,,0.00,WeatherDisplay:10.37,2013-10-20 20:27:00,
2013-10-20 13:32:00,80.9,46.6,29.91,WNW,283,1.2,1.2,30,0.00,CLR,,0.00,WeatherDisplay:10.37,2013-10-20 20:32:00,
2013-10-20 13:37:00,81.2,46.8,29.91,West,273,2.3,2.3,30,0.00,CLR,,0.00,WeatherDisplay:10.37,2013-10-20 20:37:00,
2013-10-20 13:42:00,81.5,46.2,29.91,North,350,3.5,3.5,29,0.00,CLR,,0.00,WeatherDisplay:10.37,2013-10-20 20:42:00,
2013-10-20 13:47:00,81.5,47.1,29.91,West,271,1.2,1.2,30,0.00,CLR,,0.00,WeatherDisplay:10.37,2013-10-20 20:47:00,
2013-10-20 13:52:00,81.7,47.2,29.90,NE,39,2.3,2.3,30,0.00,CLR,,0.00,WeatherDisplay:10.37,2013-10-20 20:52:00,
2013-10-20 13:57:00,82.0,47.5,29.90,NW,319,1.0,1.0,30,0.00,CLR,,0.00,WeatherDisplay:10.37,2013-10-20 20:57:00,
2013-10-20 14:02:00,82.2,45.8,29.90,NNW,345,2.3,2.3,28,0.00,CLR,,0.00,WeatherDisplay:10.37,2013-10-20 21:02:00,
2013-10-20 14:07:00,81.9,46.5,29.90,WNW,302,3.5,3.5,29,0.00,CLR,,0.00,WeatherDisplay:10.37,2013-10-20 21:07:00,
2013-10-20 14:12:00,82.0,46.6,29.89,WNW,300,3.5,3.5,29,0.00,CLR,,0.00,WeatherDisplay:10.37,2013-10-20 21:12:00,
2013-10-20 14:17:00,82.1,45.8,29.89,NW,324,2.0,2.0,28,0.00,CLR,,0.00,WeatherDisplay:10.37,2013-10-20 21:17:00,
2013-10-20 14:22:00,81.9,44.6,29.89,NW,319,3.5,3.5,27,0.00,CLR,,0.00,WeatherDisplay:10.37,2013-10-20 21:22:00,
2013-10-20 14:27:00,81.9,44.6,29.89,NW,317,2.3,2.3,27,0.00,CLR,,0.00,WeatherDisplay:10.37,2013-10-20 21:27:00,
2013-10-20 14:32:00,81.9,42.6,29.89,NW,322,3.5,3.5,25,0.00,CLR,,0.00,WeatherDisplay:10.37,2013-10-20 21:32:00,
2013-10-20 14:37:00,82.0,43.7,29.88,SSW,199,2.3,2.3,26,0.00,CLR,,0.00,WeatherDisplay:10.37,2013-10-20 21:37:00,
2013-10-20 14:42:00,82.5,43.1,29.89,SSW,198,1.2,0.0,25,0.00,CLR,,0.00,WeatherDisplay:10.37,2013-10-20 21:42:00,
2013-10-20 14:47:00,83.0,42.5,29.89,NNW,330,0.0,0.0,24,0.00,CLR,,0.00,WeatherDisplay:10.37,2013-10-20 21:47:00,
2013-10-20 14:52:00,83.4,43.9,29.88,NNE,27,3.5,3.5,25,0.00,CLR,,0.00,WeatherDisplay:10.37,2013-10-20 21:52:00,
2013-10-20 14:57:00,83.3,42.7,29.88,NW,305,3.5,3.5,24,0.00,CLR,,0.00,WeatherDisplay:10.37,2013-10-20 21:57:00,
2013-10-20 15:02:00,83.4,44.9,29.88,North,351,1.2,1.2,26,0.00,CLR,,0.00,WeatherDisplay:10.37,2013-10-20 22:02:00,
2013-10-20 15:07:00,83.4,42.8,29.88,SE,129,1.2,1.2,24,0.00,CLR,,0.00,WeatherDisplay:10.37,2013-10-20 22:07:00,
2013-10-20 15:12:00,83.7,44.1,29.88,WNW,288,1.2,1.2,25,0.00,CLR,,0.00,WeatherDisplay:10.37,2013-10-20 22:12:00,
2013-10-20 15:17:00,83.7,42.0,29.88,SW,230,2.3,2.3,23,0.00,CLR,,0.00,WeatherDisplay:10.37,2013-10-20 22:17:00,
2013-10-20 15:22:00,83.8,44.2,29.88,NNW,345,3.5,3.5,25,0.00,CLR,,0.00,WeatherDisplay:10.37,2013-10-20 22:22:00,
2013-10-20 15:27:00,83.5,41.8,29.88,SW,225,3.5,3.5,23,0.00,CLR,,0.00,WeatherDisplay:10.37,2013-10-20 22:27:00,
2013-10-20 15:32:00,83.2,42.6,29.88,North,350,1.2,1.2,24,0.00,CLR,,0.00,WeatherDisplay:10.37,2013-10-20 22:32:00,
2013-10-20 15:37:00,83.2,42.6,29.87,ESE,114,0.0,0.3,24,0.00,CLR,,0.00,WeatherDisplay:10.37,2013-10-20 22:37:00,
2013-10-20 15:42:00,83.4,41.7,29.87,West,274,0.0,0.0,23,0.00,CLR,,0.00,WeatherDisplay:10.37,2013-10-20 22:42:00,
2013-10-20 15:47:00,83.6,41.9,29.87,NW,316,2.0,2.0,23,0.00,CLR,,0.00,WeatherDisplay:10.37,2013-10-20 22:47:00,
2013-10-20 15:52:00,83.6,41.9,29.87,SSW,212,3.5,3.5,23,0.00,CLR,,0.00,WeatherDisplay:10.37,2013-10-20 22:52:00,
2013-10-20 15:57:00,83.4,42.8,29.87,West,260,2.3,2.3,24,0.00,CLR,,0.00,WeatherDisplay:10.37,2013-10-20 22:57:00,
2013-10-20 16:02:00,83.2,42.6,29.87,West,276,2.3,2.3,24,0.00,CLR,,0.00,WeatherDisplay:10.37,2013-10-20 23:02:00,
2013-10-20 16:07:00,83.2,43.7,29.87,WSW,252,1.2,1.2,25,0.00,CLR,,0.00,WeatherDisplay:10.37,2013-10-20 23:07:00,
2013-10-20 16:12:00,83.2,43.7,29.87,North,350,3.5,3.5,25,0.00,CLR,,0.00,WeatherDisplay:10.37,2013-10-20 23:12:00,
2013-10-20 16:17:00,82.8,43.4,29.87,WNW,300,1.2,1.2,25,0.00,CLR,,0.00,WeatherDisplay:10.37,2013-10-20 23:17:00,
2013-10-20 16:22:00,82.9,43.5,29.86,ESE,122,1.2,0.0,25,0.00,CLR,,0.00,WeatherDisplay:10.37,2013-10-20 23:22:00,
2013-10-20 16:27:00,83.0,42.5,29.86,North,352,1.2,0.0,24,0.00,CLR,,0.00,WeatherDisplay:10.37,2013-10-20 23:27:00,
2013-10-20 16:32:00,82.8,42.3,29.86,NW,325,3.5,3.5,24,0.00,CLR,,0.00,WeatherDisplay:10.37,2013-10-20 23:32:00,
2013-10-20 16:37:00,82.2,42.9,29.86,WSW,240,1.2,0.0,25,0.00,CLR,,0.00,WeatherDisplay:10.37,2013-10-20 23:37:00,
2013-10-20 16:42:00,82.0,41.6,29.86,NW,322,1.2,1.2,24,0.00,CLR,,0.00,WeatherDisplay:10.37,2013-10-20 23:42:00,
2013-10-20 16:47:00,81.9,42.6,29.86,North,354,2.3,2.3,25,0.00,CLR,,0.00,WeatherDisplay:10.37,2013-10-20 23:47:00,
2013-10-20 16:52:00,81.7,42.4,29.86,NNW,328,2.0,2.0,25,0.00,CLR,,0.00,WeatherDisplay:10.37,2013-10-20 23:52:00,
2013-10-20 16:57:00,81.6,43.4,29.86,NNW,339,0.0,0.0,26,0.00,CLR,,0.00,WeatherDisplay:10.37,2013-10-20 23:57:00,
2013-10-20 17:02:00,81.8,42.5,29.86,North,360,1.2,1.2,25,0.00,CLR,,0.00,WeatherDisplay:10.37,2013-10-21 00:02:00,
2013-10-20 17:07:00,81.9,42.6,29.85,West,278,0.0,0.0,25,0.00,CLR,,0.00,WeatherDisplay:10.37,2013-10-21 00:07:00,
2013-10-20 17:12:00,81.8,42.5,29.86,NW,322,1.2,0.0,25,0.00,CLR,,0.00,WeatherDisplay:10.37,2013-10-21 00:12:00,
2013-10-20 17:17:00,81.2,44.0,29.86,WSW,245,1.2,0.0,27,0.00,CLR,,0.00,WeatherDisplay:10.37,2013-10-21 00:17:00,
2013-10-20 17:22:00,80.8,43.7,29.85,NW,322,1.2,1.2,27,0.00,CLR,,0.00,WeatherDisplay:10.37,2013-10-21 00:22:00,
2013-10-20 17:27:00,80.2,43.2,29.85,NW,322,1.2,1.2,27,0.00,CLR,,0.00,WeatherDisplay:10.37,2013-10-21 00:27:00,
2013-10-20 17:32:00,79.8,43.8,29.85,NNW,345,1.2,1.2,28,0.00,CLR,,0.00,WeatherDisplay:10.37,2013-10-21 00:32:00,
2013-10-20 17:37:00,79.4,44.4,29.85,NNW,345,0.0,0.0,29,0.00,CLR,,0.00,WeatherDisplay:10.37,2013-10-21 00:37:00,
2013-10-20 17:42:00,78.9,43.9,29.85,NNW,345,0.0,0.0,29,0.00,CLR,,0.00,WeatherDisplay:10.37,2013-10-21 00:42:00,
2013-10-20 17:47:00,78.5,43.6,29.85,NNW,345,0.0,0.0,29,0.00,CLR,,0.00,WeatherDisplay:10.37,2013-10-21 00:47:00,
2013-10-20 17:52:00,78.0,44.0,29.85,NNW,345,0.0,0.0,30,0.00,CLR,,0.00,WeatherDisplay:10.37,2013-10-21 00:52:00,
2013-10-20 17:57:00,77.6,43.7,29.85,NNW,345,0.0,0.0,30,0.00,CLR,,0.00,WeatherDisplay:10.37,2013-10-21 00:57:00,
2013-10-20 18:02:00,77.0,44.0,29.85,NNW,345,0.0,0.0,31,0.00,CLR,,0.00,WeatherDisplay:10.37,2013-10-21 01:02:00,
2013-10-20 18:07:00,76.4,45.9,29.85,NNW,346,0.0,0.0,34,0.00,CLR,,0.00,WeatherDisplay:10.37,2013-10-21 01:07:00,
2013-10-20 18:12:00,75.6,46.0,29.85,NNW,345,0.0,0.0,35,0.00,CLR,,0.00,WeatherDisplay:10.37,2013-10-21 01:12:00,
2013-10-20 18:17:00,74.7,46.7,29.85,NNW,345,0.0,0.0,37,0.00,CLR,,0.00,WeatherDisplay:10.37,2013-10-21 01:17:00,
2013-10-20 18:22:00,73.7,47.9,29.85,NNW,346,0.0,0.0,40,0.00,CLR,,0.00,WeatherDisplay:10.37,2013-10-21 01:22:00,
2013-10-20 18:27:00,72.6,46.2,29.85,NNW,345,0.0,0.0,39,0.00,CLR,,0.00,WeatherDisplay:10.37,2013-10-21 01:27:00,
2013-10-20 18:32:00,71.6,47.3,29.86,NNW,345,0.0,0.0,42,0.00,CLR,,0.00,WeatherDisplay:10.37,2013-10-21 01:32:00,
2013-10-20 18:37:00,70.6,46.4,29.86,NNW,345,0.0,0.0,42,0.00,CLR,,0.00,WeatherDisplay:10.37,2013-10-21 01:37:00,
2013-10-20 18:42:00,69.7,48.0,29.86,NNW,346,0.0,0.0,46,0.00,CLR,,0.00,WeatherDisplay:10.37,2013-10-21 01:42:00,
2013-10-20 18:47:00,68.9,46.1,29.86,NNW,345,0.0,0.0,44,0.00,CLR,,0.00,WeatherDisplay:10.37,2013-10-21 01:47:00,
2013-10-20 18:52:00,68.2,46.6,29.86,NNW,346,0.0,0.0,46,0.00,CLR,,0.00,WeatherDisplay:10.37,2013-10-21 01:52:00,
2013-10-20 18:57:00,67.5,46.6,29.86,NNW,346,0.0,0.0,47,0.00,CLR,,0.00,WeatherDisplay:10.37,2013-10-21 01:57:00,
2013-10-20 19:02:00,66.9,47.1,29.86,NNW,346,0.0,0.0,49,0.00,CLR,,0.00,WeatherDisplay:10.37,2013-10-21 02:02:00,
2013-10-20 19:07:00,66.3,47.1,29.86,NNW,345,0.0,0.0,50,0.00,CLR,,0.00,WeatherDisplay:10.37,2013-10-21 02:07:00,
2013-10-20 19:12:00,65.7,48.6,29.86,NNW,345,0.0,0.0,54,0.00,CLR,,0.00,WeatherDisplay:10.37,2013-10-21 02:12:00,
2013-10-20 19:17:00,65.2,48.6,29.87,NNW,345,0.0,0.0,55,0.00,CLR,,0.00,WeatherDisplay:10.37,2013-10-21 02:17:00,
2013-10-20 19:22:00,64.8,48.7,29.86,NNW,345,0.0,0.0,56,0.00,CLR,,0.00,WeatherDisplay:10.37,2013-10-21 02:22:00,
2013-10-20 19:27:00,64.4,48.4,29.87,NNW,345,0.0,0.0,56,0.00,CLR,,0.00,WeatherDisplay:10.37,2013-10-21 02:27:00,
2013-10-20 19:32:00,63.9,48.4,29.87,NNW,346,0.0,0.0,57,0.00,CLR,,0.00,WeatherDisplay:10.37,2013-10-21 02:32:00,
2013-10-20 19:37:00,63.5,48.9,29.87,NNW,345,0.0,0.0,59,0.00,CLR,,0.00,WeatherDisplay:10.37,2013-10-21 02:37:00,
2013-10-20 19:42:00,63.2,49.1,29.87,NNW,345,0.0,0.0,60,0.00,CLR,,0.00,WeatherDisplay:10.37,2013-10-21 02:42:00,
2013-10-20 19:47:00,62.8,48.7,29.87,NNW,345,0.0,0.0,60,0.00,CLR,,0.00,WeatherDisplay:10.37,2013-10-21 02:47:00,
2013-10-20 19:52:00,62.5,48.9,29.87,NNW,346,0.0,0.0,61,0.00,CLR,,0.00,WeatherDisplay:10.37,2013-10-21 02:52:00,
2013-10-20 19:57:00,62.1,48.9,29.87,NNW,345,0.0,0.0,62,0.00,CLR,,0.00,WeatherDisplay:10.37,2013-10-21 02:57:00,
2013-10-20 20:02:00,61.8,49.1,29.87,NNW,345,0.0,0.0,63,0.00,CLR,,0.00,WeatherDisplay:10.37,2013-10-21 03:02:00,
2013-10-20 20:07:00,61.5,49.2,29.88,NNW,346,0.0,0.0,64,0.00,CLR,,0.00,WeatherDisplay:10.37,2013-10-21 03:07:00,
2013-10-20 20:12:00,61.2,48.9,29.87,NNW,345,0.0,0.0,64,0.00,CLR,,0.00,WeatherDisplay:10.37,2013-10-21 03:12:00,
2013-10-20 20:17:00,61.0,49.1,29.87,NNW,345,0.0,0.0,65,0.00,CLR,,0.00,WeatherDisplay:10.37,2013-10-21 03:17:00,
2013-10-20 20:22:00,60.7,48.9,29.88,NNW,345,0.0,0.0,65,0.00,CLR,,0.00,WeatherDisplay:10.37,2013-10-21 03:22:00,
2013-10-20 20:27:00,60.4,48.6,29.87,NNW,345,0.0,0.0,65,0.00,CLR,,0.00,WeatherDisplay:10.37,2013-10-21 03:27:00,
2013-10-20 20:32:00,60.1,48.3,29.88,NNW,346,0.0,0.0,65,0.00,CLR,,0.00,WeatherDisplay:10.37,2013-10-21 03:32:00,
2013-10-20 20:37:00,59.8,47.2,29.88,NNW,345,0.0,0.0,63,0.00,CLR,,0.00,WeatherDisplay:10.37,2013-10-21 03:37:00,
2013-10-20 20:42:00,59.5,46.9,29.88,NNW,345,0.0,0.0,63,0.00,CLR,,0.00,WeatherDisplay:10.37,2013-10-21 03:42:00,
2013-10-20 20:47:00,59.4,47.6,29.88,NNW,346,0.0,0.0,65,0.00,CLR,,0.00,WeatherDisplay:10.37,2013-10-21 03:47:00,
2013-10-20 20:52:00,59.2,47.8,29.88,NNW,345,0.0,0.0,66,0.00,CLR,,0.00,WeatherDisplay:10.37,2013-10-21 03:52:00,
2013-10-20 20:57:00,59.0,46.8,29.88,NNW,345,0.0,0.0,64,0.00,CLR,,0.00,WeatherDisplay:10.37,2013-10-21 03:57:00,
2013-10-20 21:01:00,58.9,46.7,29.88,NNW,345,0.0,0.0,64,0.00,CLR,,0.00,WeatherDisplay:10.37,2013-10-21 04:01:00,
2013-10-20 21:02:00,58.8,46.6,29.88,NNW,346,0.0,0.0,64,0.00,CLR,,0.00,WeatherDisplay:10.37,2013-10-21 04:02:00,
2013-10-20 21:07:00,58.7,47.0,29.88,NNW,345,0.0,0.0,65,0.00,CLR,,0.00,WeatherDisplay:10.37,2013-10-21 04:07:00,
2013-10-20 21:12:00,58.5,46.8,29.88,NNW,345,0.0,0.0,65,0.00,CLR,,0.00,WeatherDisplay:10.37,2013-10-21 04:12:00,
2013-10-20 21:17:00,58.4,46.7,29.88,NNW,345,0.0,0.0,65,0.00,CLR,,0.00,WeatherDisplay:10.37,2013-10-21 04:17:00,
2013-10-20 21:22:00,58.2,46.1,29.89,NNW,345,0.0,0.0,64,0.00,CLR,,0.00,WeatherDisplay:10.37,2013-10-21 04:22:00,
2013-10-20 21:27:00,58.1,46.4,29.89,NNW,345,0.0,0.0,65,0.00,CLR,,0.00,WeatherDisplay:10.37,2013-10-21 04:27:00,
2013-10-20 21:32:00,57.9,46.2,29.89,NNW,346,0.0,0.0,65,0.00,CLR,,0.00,WeatherDisplay:10.37,2013-10-21 04:32:00,
2013-10-20 21:37:00,57.8,45.7,29.89,NNW,345,0.0,0.0,64,0.00,CLR,,0.00,WeatherDisplay:10.37,2013-10-21 04:37:00,
2013-10-20 21:42:00,57.7,46.4,29.89,NNW,345,0.0,0.0,66,0.00,CLR,,0.00,WeatherDisplay:10.37,2013-10-21 04:42:00,
2013-10-20 21:47:00,57.6,46.7,29.89,NNW,345,0.0,0.0,67,0.00,CLR,,0.00,WeatherDisplay:10.37,2013-10-21 04:47:00,
2013-10-20 21:52:00,57.5,47.0,29.89,NNW,345,0.0,0.0,68,0.00,CLR,,0.00,WeatherDisplay:10.37,2013-10-21 04:52:00,
2013-10-20 21:57:00,57.4,46.9,29.89,NNW,346,0.0,0.0,68,0.00,CLR,,0.00,WeatherDisplay:10.37,2013-10-21 04:57:00,
2013-10-20 22:02:00,57.2,46.3,29.89,NNW,346,0.0,0.0,67,0.00,CLR,,0.00,WeatherDisplay:10.37,2013-10-21 05:02:00,
2013-10-20 22:07:00,57.0,46.5,29.89,NNW,345,0.0,0.0,68,0.00,CLR,,0.00,WeatherDisplay:10.37,2013-10-21 05:07:00,
2013-10-20 22:12:00,56.9,45.7,29.90,NNW,346,0.0,0.0,66,0.00,CLR,,0.00,WeatherDisplay:10.37,2013-10-21 05:12:00,
2013-10-20 22:17:00,56.8,46.0,29.90,NNW,345,0.0,0.0,67,0.00,CLR,,0.00,WeatherDisplay:10.37,2013-10-21 05:17:00,
2013-10-20 22:22:00,56.7,45.5,29.90,NNW,345,0.0,0.0,66,0.00,CLR,,0.00,WeatherDisplay:10.37,2013-10-21 05:22:00,
2013-10-20 22:27:00,56.5,44.9,29.90,NNW,345,0.0,0.0,65,0.00,CLR,,0.00,WeatherDisplay:10.37,2013-10-21 05:27:00,
2013-10-20 22:32:00,56.5,45.7,29.90,NNW,345,0.0,0.0,67,0.00,CLR,,0.00,WeatherDisplay:10.37,2013-10-21 05:32:00,
2013-10-20 22:37:00,56.4,45.6,29.90,NNW,346,0.0,0.0,67,0.00,CLR,,0.00,WeatherDisplay:10.37,2013-10-21 05:37:00,
2013-10-20 22:42:00,56.3,45.5,29.90,NNW,346,0.0,0.0,67,0.00,CLR,,0.00,WeatherDisplay:10.37,2013-10-21 05:42:00,
2013-10-20 22:47:00,56.2,45.8,29.90,NNW,345,0.0,0.0,68,0.00,CLR,,0.00,WeatherDisplay:10.37,2013-10-21 05:47:00,
2013-10-20 22:52:00,56.1,45.7,29.90,NNW,346,0.0,0.0,68,0.00,CLR,,0.00,WeatherDisplay:10.37,2013-10-21 05:52:00,
2013-10-20 22:57:00,56.0,46.0,29.90,NNW,346,0.0,0.0,69,0.00,CLR,,0.00,WeatherDisplay:10.37,2013-10-21 05:57:00,
2013-10-20 23:02:00,55.9,46.3,29.90,NNW,346,0.0,0.0,70,0.00,CLR,,0.00,WeatherDisplay:10.37,2013-10-21 06:02:00,
2013-10-20 23:07:00,55.7,46.1,29.90,NNW,345,0.0,0.0,70,0.00,CLR,,0.00,WeatherDisplay:10.37,2013-10-21 06:07:00,
2013-10-20 23:12:00,55.6,46.3,29.90,NNW,345,0.0,0.0,71,0.00,CLR,,0.00,WeatherDisplay:10.37,2013-10-21 06:12:00,
2013-10-20 23:17:00,55.4,46.2,29.90,NNW,345,0.0,0.0,71,0.00,CLR,,0.00,WeatherDisplay:10.37,2013-10-21 06:17:00,
2013-10-20 23:22:00,55.2,46.3,29.90,NNW,345,0.0,0.0,72,0.00,CLR,,0.00,WeatherDisplay:10.37,2013-10-21 06:22:00,
2013-10-20 23:27:00,55.1,46.6,29.90,NNW,345,0.0,0.0,73,0.00,CLR,,0.00,WeatherDisplay:10.37,2013-10-21 06:27:00,
2013-10-20 23:32:00,55.2,47.4,29.90,NNW,346,0.0,0.0,75,0.00,CLR,,0.00,WeatherDisplay:10.37,2013-10-21 06:32:00,
2013-10-20 23:37:00,55.2,47.4,29.90,NNW,345,0.0,0.0,75,0.00,CLR,,0.00,WeatherDisplay:10.37,2013-10-21 06:37:00,
2013-10-20 23:42:00,55.1,47.0,29.90,NNW,345,0.0,0.0,74,0.00,CLR,,0.00,WeatherDisplay:10.37,2013-10-21 06:42:00,
2013-10-20 23:47:00,55.0,45.8,29.90,NNW,345,0.0,0.0,71,0.00,CLR,,0.00,WeatherDisplay:10.37,2013-10-21 06:47:00,
2013-10-20 23:52:00,54.9,45.7,29.90,NNW,345,0.0,0.0,71,0.00,CLR,,0.00,WeatherDisplay:10.37,2013-10-21 06:52:00,
2013-10-20 23:57:00,54.8,45.9,29.90,NNW,345,0.0,0.0,72,0.00,CLR,,0.00,WeatherDisplay:10.37,2013-10-21 06:57:00,